createdAt,value
2023-04-18T00:01:15.535Z,11.85
2023-04-18T00:04:19.234Z,11.90
2023-04-18T00:07:21.677Z,11.83
2023-04-18T00:10:24.295Z,11.89
2023-04-18T00:13:28.424Z,11.77
2023-04-18T00:16:33.129Z,11.70
2023-04-18T00:19:37.640Z,11.81
2023-04-18T00:22:43.901Z,11.72
2023-04-18T00:25:46.124Z,11.70
2023-04-18T00:28:48.863Z,11.75
2023-04-18T00:31:52.874Z,11.59
2023-04-18T00:34:55.359Z,11.63
2023-04-18T00:37:58.325Z,11.65
2023-04-18T00:41:00.809Z,11.72
2023-04-18T00:44:03.048Z,11.58
2023-04-18T00:47:05.946Z,11.66
2023-04-18T00:50:09.827Z,11.68
2023-04-18T00:53:13.450Z,11.60
2023-04-18T00:56:16.169Z,11.72
2023-04-18T00:59:18.964Z,11.71
2023-04-18T01:02:21.318Z,11.69
2023-04-18T01:05:24.050Z,11.60
2023-04-18T01:08:27.797Z,11.61
2023-04-18T01:11:32.826Z,11.60
2023-04-18T01:14:35.064Z,11.62
2023-04-18T01:17:39.651Z,11.64
2023-04-18T01:20:45.826Z,11.66
2023-04-18T01:23:49.044Z,11.57
2023-04-18T01:26:51.381Z,11.59
2023-04-18T01:29:54.002Z,11.61
2023-04-18T01:32:56.372Z,11.65
2023-04-18T01:36:01.525Z,11.59
2023-04-18T01:39:06.645Z,11.57
2023-04-18T01:42:09.181Z,11.69
2023-04-18T01:45:13.168Z,11.71
2023-04-18T01:48:15.840Z,11.71
2023-04-18T01:51:18.043Z,11.55
2023-04-18T01:54:20.639Z,11.50
2023-04-18T01:57:23.050Z,11.51
2023-04-18T02:00:25.980Z,11.57
2023-04-18T02:03:28.540Z,11.62
2023-04-18T02:06:31.283Z,11.54
2023-04-18T02:09:35.102Z,11.53
2023-04-18T02:12:38.886Z,11.50
2023-04-18T02:15:41.395Z,11.45
2023-04-18T02:18:43.914Z,11.52
2023-04-18T02:21:46.131Z,11.52
2023-04-18T02:24:49.975Z,11.56
2023-04-18T02:27:52.958Z,11.73
2023-04-18T02:30:55.923Z,11.70
2023-04-18T02:33:59.231Z,11.75
2023-04-18T02:37:01.839Z,11.77
2023-04-18T02:40:05.716Z,11.79
2023-04-18T02:43:09.109Z,11.76
2023-04-18T02:46:12.108Z,11.78
2023-04-18T02:49:14.747Z,11.77
2023-04-18T02:52:17.137Z,11.79
2023-04-18T02:55:19.738Z,11.75
2023-04-18T02:58:22.733Z,11.53
2023-04-18T03:01:26.590Z,11.41
2023-04-18T03:04:29.277Z,11.27
2023-04-18T03:07:32.317Z,11.17
2023-04-18T03:10:34.955Z,11.10
2023-04-18T03:13:37.760Z,11.10
2023-04-18T03:16:40.665Z,11.06
2023-04-18T03:19:45.426Z,11.02
2023-04-18T03:22:48.045Z,11.11
2023-04-18T03:25:52.023Z,11.09
2023-04-18T03:28:54.617Z,11.13
2023-04-18T03:31:57.084Z,11.10
2023-04-18T03:34:59.602Z,11.11
2023-04-18T03:38:02.159Z,11.23
2023-04-18T03:41:04.885Z,11.22
2023-04-18T03:44:07.721Z,11.24
2023-04-18T03:47:11.251Z,11.27
2023-04-18T03:50:15.286Z,11.43
2023-04-18T03:53:18.201Z,11.40
2023-04-18T03:56:20.935Z,11.46
2023-04-18T03:59:23.423Z,11.40
2023-04-18T04:02:26.408Z,11.41
2023-04-18T04:05:29.367Z,11.42
2023-04-18T04:08:32.579Z,11.38
2023-04-18T04:11:35.110Z,11.34
2023-04-18T04:14:38.115Z,11.37
2023-04-18T04:17:41.091Z,11.32
2023-04-18T04:20:46.221Z,11.47
2023-04-18T04:23:49.052Z,11.53
2023-04-18T04:26:53.258Z,11.51
2023-04-18T04:29:56.835Z,11.49
2023-04-18T04:32:59.759Z,11.30
2023-04-18T04:36:02.410Z,11.38
2023-04-18T04:39:05.590Z,11.21
2023-04-18T04:42:09.668Z,11.23
2023-04-18T04:45:13.810Z,11.19
2023-04-18T04:48:16.749Z,11.25
2023-04-18T04:51:18.956Z,11.30
2023-04-18T04:54:21.546Z,11.26
2023-04-18T04:57:24.048Z,11.36
2023-04-18T05:00:27.240Z,11.19
2023-04-18T05:03:29.588Z,11.36
2023-04-18T05:06:32.462Z,11.37
2023-04-18T05:09:34.653Z,11.30
2023-04-18T05:12:40.066Z,11.06
2023-04-18T05:15:42.668Z,10.92
2023-04-18T05:18:45.127Z,10.87
2023-04-18T05:21:47.356Z,10.75
2023-04-18T05:24:49.783Z,10.64
2023-04-18T05:27:52.079Z,10.68
2023-04-18T05:31:01.032Z,10.83
2023-04-18T05:34:03.528Z,10.99
2023-04-18T05:37:06.415Z,11.05
2023-04-18T05:40:09.148Z,11.17
2023-04-18T05:43:11.827Z,11.39
2023-04-18T05:46:14.451Z,11.48
2023-04-18T05:49:17.092Z,11.67
2023-04-18T05:52:19.366Z,11.82
2023-04-18T05:55:21.976Z,12.05
2023-04-18T05:58:24.162Z,12.14
2023-04-18T06:01:27.511Z,12.40
2023-04-18T06:04:30.166Z,12.60
2023-04-18T06:07:32.779Z,12.98
2023-04-18T06:10:37.665Z,13.14
2023-04-18T06:13:41.702Z,13.39
2023-04-18T06:16:46.831Z,13.53
2023-04-18T06:19:49.603Z,13.45
2023-04-18T06:22:52.360Z,13.72
2023-04-18T06:25:54.892Z,13.73
2023-04-18T06:28:57.469Z,13.78
2023-04-18T06:32:00.007Z,13.62
2023-04-18T06:35:02.664Z,13.70
2023-04-18T06:38:04.803Z,14.02
2023-04-18T06:41:07.302Z,14.37
2023-04-18T06:44:09.548Z,14.68
2023-04-18T06:47:12.344Z,15.29
2023-04-18T06:50:15.150Z,16.12
2023-04-18T06:53:17.890Z,18.08
2023-04-18T06:56:21.170Z,20.07
2023-04-18T06:59:23.785Z,20.10
2023-04-18T07:02:26.180Z,21.01
2023-04-18T07:05:28.852Z,21.10
2023-04-18T07:08:31.192Z,20.68
2023-04-18T07:11:34.106Z,18.38
2023-04-18T07:14:36.312Z,17.86
2023-04-18T07:17:39.437Z,17.29
2023-04-18T07:20:41.776Z,17.78
2023-04-18T07:23:44.262Z,17.05
2023-04-18T07:26:46.465Z,16.87
2023-04-18T07:29:48.894Z,17.27
2023-04-18T07:32:51.312Z,16.99
2023-04-18T07:35:53.840Z,17.06
2023-04-18T07:38:55.967Z,16.95
2023-04-18T07:41:58.891Z,17.01
2023-04-18T07:45:01.114Z,16.76
2023-04-18T07:48:04.252Z,16.84
2023-04-18T07:51:06.526Z,17.53
2023-04-18T07:54:11.075Z,17.64
2023-04-18T07:57:13.389Z,17.54
2023-04-18T08:00:17.472Z,17.35
2023-04-18T08:03:20.211Z,17.45
2023-04-18T08:06:23.197Z,17.97
2023-04-18T08:09:26.110Z,18.22
2023-04-18T08:12:28.309Z,18.38
2023-04-18T08:15:33.039Z,18.46
2023-04-18T08:18:35.886Z,18.55
2023-04-18T08:21:39.856Z,18.89
2023-04-18T08:25:04.425Z,18.41
2023-04-18T08:28:08.575Z,17.68
2023-04-18T08:31:15.066Z,18.01
2023-04-18T08:34:17.740Z,17.15
2023-04-18T08:37:19.952Z,17.48
2023-04-18T08:40:27.835Z,17.85
2023-04-18T08:43:38.878Z,17.95
2023-04-18T08:46:41.851Z,17.89
2023-04-18T08:49:45.550Z,17.79
2023-04-18T08:52:51.174Z,17.31
2023-04-18T08:55:57.440Z,17.37
2023-04-18T08:59:00.199Z,17.73
2023-04-18T09:02:04.224Z,17.80
2023-04-18T09:05:20.105Z,17.36
2023-04-18T09:08:24.372Z,17.96
2023-04-18T09:11:29.696Z,18.41
2023-04-18T09:14:32.662Z,19.17
2023-04-18T09:17:42.432Z,19.98
2023-04-18T09:20:47.712Z,20.44
2023-04-18T09:23:50.504Z,19.65
2023-04-18T09:26:54.077Z,19.52
2023-04-18T09:29:58.034Z,19.69
2023-04-18T09:33:03.283Z,19.80
2023-04-18T09:36:19.643Z,19.23
2023-04-18T09:39:28.620Z,19.92
2023-04-18T09:42:36.208Z,20.66
2023-04-18T09:45:39.023Z,20.36
2023-04-18T09:48:41.945Z,20.57
2023-04-18T09:51:46.210Z,21.10
2023-04-18T09:54:53.784Z,21.47
2023-04-18T09:57:57.164Z,20.75
2023-04-18T10:01:00.263Z,20.37
2023-04-18T10:04:06.308Z,19.91
2023-04-18T10:07:08.925Z,20.08
2023-04-18T10:10:12.028Z,20.33
2023-04-18T10:13:14.730Z,20.80
2023-04-18T10:16:18.143Z,21.96
2023-04-18T10:19:23.266Z,23.02
2023-04-18T10:22:27.495Z,21.42
2023-04-18T10:25:38.853Z,22.58
2023-04-18T10:28:58.044Z,22.30
2023-04-18T10:32:06.204Z,21.95
2023-04-18T10:35:10.562Z,22.76
2023-04-18T10:38:23.255Z,21.65
2023-04-18T10:41:27.893Z,21.94
2023-04-18T10:44:30.041Z,21.61
2023-04-18T10:47:32.746Z,21.56
2023-04-18T10:50:55.034Z,22.04
2023-04-18T10:54:00.875Z,22.05
2023-04-18T10:57:04.479Z,22.63
2023-04-18T11:00:13.732Z,23.28
2023-04-18T11:03:16.263Z,22.96
2023-04-18T11:06:19.027Z,23.36
2023-04-18T11:12:36.104Z,25.65
2023-04-18T11:21:52.635Z,26.48
2023-04-18T11:25:00.129Z,25.59
2023-04-18T11:28:03.967Z,23.57
2023-04-18T11:31:06.804Z,22.13
2023-04-18T11:34:09.242Z,21.46
2023-04-18T11:37:15.512Z,20.46
2023-04-18T11:40:17.835Z,19.75
2023-04-18T11:43:22.658Z,20.07
2023-04-18T11:46:37.864Z,20.57
2023-04-18T11:49:40.621Z,20.77
2023-04-18T11:52:43.090Z,20.85
2023-04-18T11:55:55.857Z,20.51
2023-04-18T11:58:58.235Z,20.60
2023-04-18T12:02:15.263Z,19.89
2023-04-18T12:05:27.624Z,19.93
2023-04-18T12:08:31.727Z,19.76
2023-04-18T12:11:34.664Z,19.59
2023-04-18T12:14:36.844Z,19.46
2023-04-18T12:17:39.456Z,19.97
2023-04-18T12:20:52.378Z,21.64
2023-04-18T12:23:55.533Z,22.25
2023-04-18T12:26:58.581Z,22.06
2023-04-18T12:30:00.882Z,21.65
2023-04-18T12:33:04.206Z,21.98
2023-04-18T12:36:08.554Z,22.51
2023-04-18T12:39:10.802Z,21.67
2023-04-18T12:42:13.669Z,21.26
2023-04-18T12:45:17.469Z,21.54
2023-04-18T12:48:20.228Z,20.98
2023-04-18T12:51:23.221Z,20.56
2023-04-18T12:54:25.807Z,20.44
2023-04-18T12:57:29.441Z,20.29
2023-04-18T13:00:34.227Z,20.22
2023-04-18T13:03:37.325Z,19.70
2023-04-18T13:06:40.413Z,19.27
2023-04-18T13:09:42.716Z,18.87
2023-04-18T13:12:46.474Z,18.66
2023-04-18T13:15:48.764Z,18.89
2023-04-18T13:18:51.244Z,20.67
2023-04-18T13:21:53.392Z,21.07
2023-04-18T13:24:55.911Z,20.95
2023-04-18T13:27:58.534Z,20.19
2023-04-18T13:31:01.228Z,20.02
2023-04-18T13:34:03.511Z,20.38
2023-04-18T13:37:06.586Z,19.88
2023-04-18T13:40:09.435Z,19.72
2023-04-18T13:43:13.072Z,19.70
2023-04-18T13:46:15.600Z,19.46
2023-04-18T13:49:18.048Z,19.29
2023-04-18T13:52:20.357Z,19.45
2023-04-18T13:55:22.974Z,19.42
2023-04-18T13:58:25.650Z,19.38
2023-04-18T14:01:28.418Z,19.38
2023-04-18T14:04:32.736Z,19.03
2023-04-18T14:07:36.263Z,18.80
2023-04-18T14:10:38.955Z,18.88
2023-04-18T14:13:41.295Z,19.20
2023-04-18T14:16:43.967Z,19.25
2023-04-18T14:19:46.188Z,18.90
2023-04-18T14:22:52.322Z,18.74
2023-04-18T14:25:55.575Z,18.62
2023-04-18T14:28:58.162Z,18.26
2023-04-18T14:32:00.750Z,18.56
2023-04-18T14:35:05.950Z,18.84
2023-04-18T14:38:08.249Z,19.20
2023-04-18T14:41:11.145Z,19.22
2023-04-18T14:44:14.585Z,19.12
2023-04-18T14:47:18.534Z,18.87
2023-04-18T14:50:20.826Z,18.89
2023-04-18T14:53:23.780Z,18.99
2023-04-18T14:56:26.639Z,19.04
2023-04-18T14:59:29.153Z,19.02
2023-04-18T15:02:31.603Z,18.96
2023-04-18T15:05:34.957Z,18.76
2023-04-18T15:08:37.223Z,18.73
2023-04-18T15:11:39.758Z,18.73
2023-04-18T15:14:41.979Z,18.58
2023-04-18T15:17:44.480Z,18.62
2023-04-18T15:20:47.412Z,18.44
2023-04-18T15:23:49.869Z,17.99
2023-04-18T15:26:52.265Z,17.84
2023-04-18T15:29:57.442Z,17.63
2023-04-18T15:32:59.688Z,17.41
2023-04-18T15:36:02.208Z,17.67
2023-04-18T15:39:05.832Z,17.72
2023-04-18T15:42:08.358Z,17.75
2023-04-18T15:45:11.620Z,17.62
2023-04-18T15:48:14.010Z,17.62
2023-04-18T15:51:16.086Z,17.63
2023-04-18T15:54:18.558Z,17.51
2023-04-18T15:57:21.412Z,17.18
2023-04-18T16:00:24.423Z,17.08
2023-04-18T16:03:27.228Z,17.00
2023-04-18T16:06:31.229Z,17.07
2023-04-18T16:09:34.042Z,17.16
2023-04-18T16:12:37.712Z,17.23
2023-04-18T16:15:41.864Z,17.20
2023-04-18T16:18:44.116Z,17.06
2023-04-18T16:21:48.780Z,16.91
2023-04-18T16:24:50.923Z,16.76
2023-04-18T16:27:53.805Z,16.66
2023-04-18T16:30:56.301Z,16.60
2023-04-18T16:33:58.859Z,16.48
2023-04-18T16:37:01.196Z,16.45
2023-04-18T16:40:08.470Z,16.28
2023-04-18T16:43:10.656Z,16.16
2023-04-18T16:46:13.736Z,16.21
2023-04-18T16:49:16.151Z,16.35
2023-04-18T16:52:18.794Z,16.39
2023-04-18T16:55:21.075Z,16.38
2023-04-18T16:58:23.694Z,16.41
2023-04-18T17:01:26.023Z,16.39
2023-04-18T17:04:29.152Z,16.35
2023-04-18T17:07:31.448Z,16.30
2023-04-18T17:10:34.503Z,16.26
2023-04-18T17:13:37.145Z,16.09
2023-04-18T17:16:41.039Z,16.04
2023-04-18T17:19:43.350Z,15.99
2023-04-18T17:22:45.906Z,15.91
2023-04-18T17:25:48.287Z,15.86
2023-04-18T17:28:50.833Z,15.77
2023-04-18T17:31:53.179Z,15.73
2023-04-18T17:34:56.146Z,15.66
2023-04-18T17:37:58.431Z,15.50
2023-04-18T17:41:02.363Z,15.41
2023-04-18T17:44:05.139Z,15.23
2023-04-18T17:47:07.582Z,15.10
2023-04-18T17:50:11.164Z,14.87
2023-04-18T17:53:15.814Z,14.77
2023-04-18T17:56:18.060Z,14.66
2023-04-18T17:59:20.655Z,14.47
2023-04-18T18:02:28.045Z,14.27
2023-04-18T18:05:30.766Z,14.15
2023-04-18T18:08:32.953Z,14.05
2023-04-18T18:11:35.695Z,13.93
2023-04-18T18:14:38.051Z,13.87
2023-04-18T18:17:40.671Z,13.75
2023-04-18T18:20:43.309Z,13.67
2023-04-18T18:23:45.939Z,13.63
2023-04-18T18:26:50.980Z,13.58
2023-04-18T18:29:54.369Z,13.51
2023-04-18T18:32:59.981Z,13.44
2023-04-18T18:36:02.699Z,13.40
2023-04-18T18:39:05.289Z,13.39
2023-04-18T18:42:07.867Z,13.40
2023-04-18T18:45:11.643Z,13.44
2023-04-18T18:48:15.357Z,13.52
2023-04-18T18:51:19.001Z,13.76
2023-04-18T18:54:21.493Z,14.03
2023-04-18T18:57:23.728Z,14.10
2023-04-18T19:00:26.288Z,14.17
2023-04-18T19:03:29.057Z,14.27
2023-04-18T19:06:32.136Z,14.40
2023-04-18T19:09:36.867Z,14.37
2023-04-18T19:12:39.434Z,14.40
2023-04-18T19:15:41.614Z,14.31
2023-04-18T19:18:47.052Z,14.41
2023-04-18T19:21:50.088Z,14.67
2023-04-18T19:24:52.589Z,14.79
2023-04-18T19:27:54.770Z,14.77
2023-04-18T19:30:57.363Z,14.68
2023-04-18T19:33:59.596Z,14.60
2023-04-18T19:37:02.171Z,14.56
2023-04-18T19:40:04.808Z,14.59
2023-04-18T19:43:07.309Z,14.48
2023-04-18T19:46:09.671Z,14.42
2023-04-18T19:49:12.459Z,14.43
2023-04-18T19:52:14.766Z,14.45
2023-04-18T19:55:17.214Z,14.39
2023-04-18T19:58:44.850Z,14.35
2023-04-18T20:01:47.606Z,14.25
2023-04-18T20:04:50.611Z,14.38
2023-04-18T20:07:52.891Z,14.15
2023-04-18T20:10:56.201Z,14.18
2023-04-18T20:13:58.444Z,14.28
2023-04-18T20:17:00.944Z,14.30
2023-04-18T20:20:04.499Z,14.21
2023-04-18T20:23:07.370Z,14.17
2023-04-18T20:26:09.712Z,14.25
2023-04-18T20:29:12.496Z,14.31
2023-04-18T20:32:14.983Z,14.29
2023-04-18T20:35:17.612Z,14.21
2023-04-18T20:38:20.076Z,14.14
2023-04-18T20:41:24.253Z,14.12
2023-04-18T20:44:26.541Z,14.21
2023-04-18T20:47:29.032Z,14.16
2023-04-18T20:50:31.452Z,14.23
2023-04-18T20:53:34.012Z,14.18
2023-04-18T20:56:36.992Z,14.20
2023-04-18T20:59:39.489Z,14.14
2023-04-18T21:02:41.979Z,14.04
2023-04-18T21:05:45.032Z,13.76
2023-04-18T21:08:47.615Z,13.68
2023-04-18T21:11:50.052Z,13.50
2023-04-18T21:14:52.499Z,13.62
2023-04-18T21:17:55.928Z,13.45
2023-04-18T21:20:58.196Z,13.45
2023-04-18T21:24:01.738Z,13.44
2023-04-18T21:27:04.159Z,13.63
2023-04-18T21:30:07.240Z,13.51
2023-04-18T21:33:09.497Z,13.40
2023-04-18T21:36:11.922Z,13.48
2023-04-18T21:39:14.125Z,13.44
2023-04-18T21:42:16.868Z,13.36
2023-04-18T21:45:19.106Z,13.44
2023-04-18T21:48:21.728Z,13.52
2023-04-18T21:51:23.930Z,13.33
2023-04-18T21:54:26.464Z,13.22
2023-04-18T21:57:28.796Z,13.20
2023-04-18T22:00:31.287Z,13.31
2023-04-18T22:03:34.448Z,13.31
2023-04-18T22:06:36.771Z,13.25
2023-04-18T22:09:39.758Z,13.11
2023-04-18T22:12:42.425Z,13.06
2023-04-18T22:15:45.026Z,13.05
2023-04-18T22:18:48.822Z,13.11
2023-04-18T22:21:51.561Z,13.10
2023-04-18T22:24:53.820Z,13.05
2023-04-18T22:27:56.495Z,13.06
2023-04-18T22:30:58.722Z,13.11
2023-04-18T22:34:01.434Z,13.09
2023-04-18T22:37:03.711Z,13.11
2023-04-18T22:40:07.000Z,13.11
2023-04-18T22:43:09.174Z,13.17
2023-04-18T22:46:11.654Z,13.02
2023-04-18T22:49:14.224Z,12.97
2023-04-18T22:52:16.659Z,13.09
2023-04-18T22:55:19.948Z,13.06
2023-04-18T22:58:22.424Z,13.02
2023-04-18T23:01:24.671Z,13.01
2023-04-18T23:04:30.022Z,12.98
2023-04-18T23:07:32.405Z,13.13
2023-04-18T23:10:35.099Z,13.07
2023-04-18T23:13:37.315Z,13.09
2023-04-18T23:16:41.033Z,13.06
2023-04-18T23:19:45.168Z,13.01
2023-04-18T23:22:50.069Z,12.98
2023-04-18T23:25:52.290Z,13.04
2023-04-18T23:28:54.844Z,13.05
2023-04-18T23:31:57.097Z,13.14
2023-04-18T23:35:04.080Z,13.10
2023-04-18T23:38:06.287Z,13.04
2023-04-18T23:41:08.734Z,13.04
2023-04-18T23:44:10.911Z,12.91
2023-04-18T23:47:13.450Z,13.09
2023-04-18T23:50:15.803Z,13.04
2023-04-18T23:53:19.257Z,13.06
2023-04-18T23:56:23.116Z,13.05
2023-04-18T23:59:25.588Z,12.99
